sensor_id;sensor_type;location;lat;lon;timestamp;temperature;humidity
23114;DHT22;11726;50.122;8.832;2023-05-07T00:02:05;16.40;99.90
23114;DHT22;11726;50.122;8.832;2023-05-07T00:04:32;16.50;99.90
23114;DHT22;11726;50.122;8.832;2023-05-07T00:07:03;16.50;99.90
23114;DHT22;11726;50.122;8.832;2023-05-07T00:09:30;16.40;99.90
23114;DHT22;11726;50.122;8.832;2023-05-07T00:11:57;16.40;99.90
23114;DHT22;11726;50.122;8.832;2023-05-07T00:14:23;16.40;99.90
23114;DHT22;11726;50.122;8.832;2023-05-07T00:16:50;16.40;99.90
23114;DHT22;11726;50.122;8.832;2023-05-07T00:19:17;16.30;99.90
23114;DHT22;11726;50.122;8.832;2023-05-07T00:21:44;16.30;99.90
23114;DHT22;11726;50.122;8.832;2023-05-07T00:24:10;16.40;99.90
23114;DHT22;11726;50.122;8.832;2023-05-07T00:26:37;16.30;99.90
23114;DHT22;11726;50.122;8.832;2023-05-07T00:29:04;16.20;99.90
23114;DHT22;11726;50.122;8.832;2023-05-07T00:31:31;16.20;99.90
23114;DHT22;11726;50.122;8.832;2023-05-07T00:33:57;16.30;99.90
23114;DHT22;11726;50.122;8.832;2023-05-07T00:36:24;16.20;99.90
23114;DHT22;11726;50.122;8.832;2023-05-07T00:38:54;16.20;99.90
23114;DHT22;11726;50.122;8.832;2023-05-07T00:41:21;16.20;99.90
23114;DHT22;11726;50.122;8.832;2023-05-07T00:43:51;16.30;99.90
23114;DHT22;11726;50.122;8.832;2023-05-07T00:46:20;16.30;99.90
23114;DHT22;11726;50.122;8.832;2023-05-07T00:48:47;16.20;99.90
23114;DHT22;11726;50.122;8.832;2023-05-07T00:51:17;16.20;99.90
23114;DHT22;11726;50.122;8.832;2023-05-07T00:53:46;16.30;99.90
23114;DHT22;11726;50.122;8.832;2023-05-07T00:56:13;16.20;99.90
23114;DHT22;11726;50.122;8.832;2023-05-07T00:58:40;16.20;99.90
23114;DHT22;11726;50.122;8.832;2023-05-07T01:01:07;16.20;99.90
23114;DHT22;11726;50.122;8.832;2023-05-07T01:03:34;16.20;99.90
23114;DHT22;11726;50.122;8.832;2023-05-07T01:06:01;16.10;99.90
23114;DHT22;11726;50.122;8.832;2023-05-07T01:08:30;16.10;99.90
23114;DHT22;11726;50.122;8.832;2023-05-07T01:10:59;16.00;99.90
23114;DHT22;11726;50.122;8.832;2023-05-07T01:13:27;16.00;99.90
23114;DHT22;11726;50.122;8.832;2023-05-07T01:15:54;16.00;99.90
23114;DHT22;11726;50.122;8.832;2023-05-07T01:18:20;16.10;99.90
23114;DHT22;11726;50.122;8.832;2023-05-07T01:20:48;16.10;99.90
23114;DHT22;11726;50.122;8.832;2023-05-07T01:27:02;16.00;99.90
23114;DHT22;11726;50.122;8.832;2023-05-07T01:29:29;16.00;99.90
23114;DHT22;11726;50.122;8.832;2023-05-07T01:31:57;16.00;99.90
23114;DHT22;11726;50.122;8.832;2023-05-07T01:34:26;16.00;99.90
23114;DHT22;11726;50.122;8.832;2023-05-07T01:36:54;15.90;99.90
23114;DHT22;11726;50.122;8.832;2023-05-07T01:39:24;15.90;99.90
23114;DHT22;11726;50.122;8.832;2023-05-07T01:41:51;16.00;99.90
23114;DHT22;11726;50.122;8.832;2023-05-07T01:44:18;16.00;99.90
23114;DHT22;11726;50.122;8.832;2023-05-07T01:46:46;16.00;99.90
23114;DHT22;11726;50.122;8.832;2023-05-07T01:49:15;15.90;99.90
23114;DHT22;11726;50.122;8.832;2023-05-07T01:51:42;15.90;99.90
23114;DHT22;11726;50.122;8.832;2023-05-07T01:54:10;15.90;99.90
23114;DHT22;11726;50.122;8.832;2023-05-07T01:56:36;15.90;99.90
23114;DHT22;11726;50.122;8.832;2023-05-07T01:59:04;15.80;99.90
23114;DHT22;11726;50.122;8.832;2023-05-07T02:01:31;15.80;99.90
23114;DHT22;11726;50.122;8.832;2023-05-07T02:03:58;15.90;99.90
23114;DHT22;11726;50.122;8.832;2023-05-07T02:06:25;15.80;99.90
23114;DHT22;11726;50.122;8.832;2023-05-07T02:08:51;15.90;99.90
23114;DHT22;11726;50.122;8.832;2023-05-07T02:11:21;15.90;99.90
23114;DHT22;11726;50.122;8.832;2023-05-07T02:13:49;15.90;99.90
23114;DHT22;11726;50.122;8.832;2023-05-07T02:16:18;15.80;99.90
23114;DHT22;11726;50.122;8.832;2023-05-07T02:18:47;15.80;99.90
23114;DHT22;11726;50.122;8.832;2023-05-07T02:21:13;15.90;99.90
23114;DHT22;11726;50.122;8.832;2023-05-07T02:23:40;15.80;99.90
23114;DHT22;11726;50.122;8.832;2023-05-07T02:26:07;15.80;99.90
23114;DHT22;11726;50.122;8.832;2023-05-07T02:28:33;15.70;99.90
23114;DHT22;11726;50.122;8.832;2023-05-07T02:31:04;15.70;99.90
23114;DHT22;11726;50.122;8.832;2023-05-07T02:33:31;15.70;99.90
23114;DHT22;11726;50.122;8.832;2023-05-07T02:36:05;15.70;99.90
23114;DHT22;11726;50.122;8.832;2023-05-07T02:38:32;15.70;99.90
23114;DHT22;11726;50.122;8.832;2023-05-07T02:40:59;15.70;99.90
23114;DHT22;11726;50.122;8.832;2023-05-07T02:43:25;15.60;99.90
23114;DHT22;11726;50.122;8.832;2023-05-07T02:46:07;15.70;99.90
23114;DHT22;11726;50.122;8.832;2023-05-07T02:48:34;15.70;99.90
23114;DHT22;11726;50.122;8.832;2023-05-07T02:51:01;15.70;99.90
23114;DHT22;11726;50.122;8.832;2023-05-07T02:53:28;15.70;99.90
23114;DHT22;11726;50.122;8.832;2023-05-07T02:55:57;15.70;99.90
23114;DHT22;11726;50.122;8.832;2023-05-07T02:58:24;15.70;99.90
23114;DHT22;11726;50.122;8.832;2023-05-07T03:00:51;15.70;99.90
23114;DHT22;11726;50.122;8.832;2023-05-07T03:03:18;15.70;99.90
23114;DHT22;11726;50.122;8.832;2023-05-07T03:05:45;15.60;99.90
23114;DHT22;11726;50.122;8.832;2023-05-07T03:08:12;15.60;99.90
23114;DHT22;11726;50.122;8.832;2023-05-07T03:10:38;15.60;99.90
23114;DHT22;11726;50.122;8.832;2023-05-07T03:13:05;15.60;99.90
23114;DHT22;11726;50.122;8.832;2023-05-07T03:15:32;15.60;99.90
23114;DHT22;11726;50.122;8.832;2023-05-07T03:18:01;15.60;99.90
23114;DHT22;11726;50.122;8.832;2023-05-07T03:20:28;15.70;99.90
23114;DHT22;11726;50.122;8.832;2023-05-07T03:22:55;15.70;99.90
23114;DHT22;11726;50.122;8.832;2023-05-07T03:25:21;15.70;99.90
23114;DHT22;11726;50.122;8.832;2023-05-07T03:27:48;15.60;99.90
23114;DHT22;11726;50.122;8.832;2023-05-07T03:30:15;15.60;99.90
23114;DHT22;11726;50.122;8.832;2023-05-07T03:32:41;15.50;99.90
23114;DHT22;11726;50.122;8.832;2023-05-07T03:35:08;15.50;99.90
23114;DHT22;11726;50.122;8.832;2023-05-07T03:37:35;15.50;99.90
23114;DHT22;11726;50.122;8.832;2023-05-07T03:40:02;15.50;99.90
23114;DHT22;11726;50.122;8.832;2023-05-07T03:42:29;15.50;99.90
23114;DHT22;11726;50.122;8.832;2023-05-07T03:44:56;15.50;99.90
23114;DHT22;11726;50.122;8.832;2023-05-07T03:47:22;15.60;99.90
23114;DHT22;11726;50.122;8.832;2023-05-07T03:49:49;15.60;99.90
23114;DHT22;11726;50.122;8.832;2023-05-07T03:52:19;15.60;99.90
23114;DHT22;11726;50.122;8.832;2023-05-07T03:54:50;15.60;99.90
23114;DHT22;11726;50.122;8.832;2023-05-07T03:57:16;15.50;99.90
23114;DHT22;11726;50.122;8.832;2023-05-07T03:59:43;15.50;99.90
23114;DHT22;11726;50.122;8.832;2023-05-07T04:02:10;15.60;99.90
23114;DHT22;11726;50.122;8.832;2023-05-07T04:04:36;15.50;99.90
23114;DHT22;11726;50.122;8.832;2023-05-07T04:07:03;15.40;99.90
23114;DHT22;11726;50.122;8.832;2023-05-07T04:09:30;15.40;99.90
23114;DHT22;11726;50.122;8.832;2023-05-07T04:11:57;15.50;99.90
23114;DHT22;11726;50.122;8.832;2023-05-07T04:14:24;15.40;99.90
23114;DHT22;11726;50.122;8.832;2023-05-07T04:16:50;15.40;99.90
23114;DHT22;11726;50.122;8.832;2023-05-07T04:19:20;15.40;99.90
23114;DHT22;11726;50.122;8.832;2023-05-07T04:21:47;15.50;99.90
23114;DHT22;11726;50.122;8.832;2023-05-07T04:24:13;15.40;99.90
23114;DHT22;11726;50.122;8.832;2023-05-07T04:26:40;15.40;99.90
23114;DHT22;11726;50.122;8.832;2023-05-07T04:29:07;15.30;99.90
23114;DHT22;11726;50.122;8.832;2023-05-07T04:31:33;15.30;99.90
23114;DHT22;11726;50.122;8.832;2023-05-07T04:34:00;15.40;99.90
23114;DHT22;11726;50.122;8.832;2023-05-07T04:36:27;15.40;99.90
23114;DHT22;11726;50.122;8.832;2023-05-07T04:38:54;15.40;99.90
23114;DHT22;11726;50.122;8.832;2023-05-07T04:41:21;15.40;99.90
23114;DHT22;11726;50.122;8.832;2023-05-07T04:43:48;15.40;99.90
23114;DHT22;11726;50.122;8.832;2023-05-07T04:46:14;15.40;99.90
23114;DHT22;11726;50.122;8.832;2023-05-07T04:48:41;15.40;99.90
23114;DHT22;11726;50.122;8.832;2023-05-07T04:51:08;15.30;99.90
23114;DHT22;11726;50.122;8.832;2023-05-07T04:53:34;15.40;99.90
23114;DHT22;11726;50.122;8.832;2023-05-07T04:56:01;15.40;99.90
23114;DHT22;11726;50.122;8.832;2023-05-07T04:58:28;15.50;99.90
23114;DHT22;11726;50.122;8.832;2023-05-07T05:00:58;15.50;99.90
23114;DHT22;11726;50.122;8.832;2023-05-07T05:03:25;15.50;99.90
23114;DHT22;11726;50.122;8.832;2023-05-07T05:05:52;15.60;99.90
23114;DHT22;11726;50.122;8.832;2023-05-07T05:08:19;15.60;99.90
23114;DHT22;11726;50.122;8.832;2023-05-07T05:10:46;15.60;99.90
23114;DHT22;11726;50.122;8.832;2023-05-07T05:13:15;15.60;99.90
23114;DHT22;11726;50.122;8.832;2023-05-07T05:15:42;15.50;99.90
23114;DHT22;11726;50.122;8.832;2023-05-07T05:18:08;15.60;99.90
23114;DHT22;11726;50.122;8.832;2023-05-07T05:20:35;15.70;99.90
23114;DHT22;11726;50.122;8.832;2023-05-07T05:23:02;15.70;99.90
23114;DHT22;11726;50.122;8.832;2023-05-07T05:25:29;15.80;99.90
23114;DHT22;11726;50.122;8.832;2023-05-07T05:27:56;15.80;99.90
23114;DHT22;11726;50.122;8.832;2023-05-07T05:30:23;15.90;99.90
23114;DHT22;11726;50.122;8.832;2023-05-07T05:32:49;15.90;99.90
23114;DHT22;11726;50.122;8.832;2023-05-07T05:35:16;15.90;99.90
23114;DHT22;11726;50.122;8.832;2023-05-07T05:37:43;15.90;99.90
23114;DHT22;11726;50.122;8.832;2023-05-07T05:40:10;15.90;99.90
23114;DHT22;11726;50.122;8.832;2023-05-07T05:42:37;15.90;99.90
23114;DHT22;11726;50.122;8.832;2023-05-07T05:45:04;16.00;99.90
23114;DHT22;11726;50.122;8.832;2023-05-07T05:47:31;16.00;99.90
23114;DHT22;11726;50.122;8.832;2023-05-07T05:49:58;16.00;99.90
23114;DHT22;11726;50.122;8.832;2023-05-07T05:52:24;16.00;99.90
23114;DHT22;11726;50.122;8.832;2023-05-07T05:54:51;16.10;99.90
23114;DHT22;11726;50.122;8.832;2023-05-07T05:57:18;16.10;99.90
23114;DHT22;11726;50.122;8.832;2023-05-07T05:59:53;16.10;99.90
23114;DHT22;11726;50.122;8.832;2023-05-07T06:02:21;16.20;99.90
23114;DHT22;11726;50.122;8.832;2023-05-07T06:04:49;16.30;99.90
23114;DHT22;11726;50.122;8.832;2023-05-07T06:07:16;16.30;99.90
23114;DHT22;11726;50.122;8.832;2023-05-07T06:09:43;16.40;99.90
23114;DHT22;11726;50.122;8.832;2023-05-07T06:12:09;16.50;99.90
23114;DHT22;11726;50.122;8.832;2023-05-07T06:14:36;16.50;99.90
23114;DHT22;11726;50.122;8.832;2023-05-07T06:17:03;16.50;99.90
23114;DHT22;11726;50.122;8.832;2023-05-07T06:19:29;16.50;99.90
23114;DHT22;11726;50.122;8.832;2023-05-07T06:21:56;16.60;99.90
23114;DHT22;11726;50.122;8.832;2023-05-07T06:24:23;16.70;99.90
23114;DHT22;11726;50.122;8.832;2023-05-07T06:26:51;16.70;99.90
23114;DHT22;11726;50.122;8.832;2023-05-07T06:29:18;16.70;99.90
23114;DHT22;11726;50.122;8.832;2023-05-07T06:31:45;16.70;99.90
23114;DHT22;11726;50.122;8.832;2023-05-07T06:34:11;16.80;99.90
23114;DHT22;11726;50.122;8.832;2023-05-07T06:36:41;16.90;99.90
23114;DHT22;11726;50.122;8.832;2023-05-07T06:39:08;17.00;99.90
23114;DHT22;11726;50.122;8.832;2023-05-07T06:41:34;17.00;99.90
23114;DHT22;11726;50.122;8.832;2023-05-07T06:44:02;17.00;99.90
23114;DHT22;11726;50.122;8.832;2023-05-07T06:46:29;17.00;99.90
23114;DHT22;11726;50.122;8.832;2023-05-07T06:48:56;17.10;99.90
23114;DHT22;11726;50.122;8.832;2023-05-07T06:51:23;17.20;99.90
23114;DHT22;11726;50.122;8.832;2023-05-07T06:53:50;17.10;99.90
23114;DHT22;11726;50.122;8.832;2023-05-07T06:56:16;17.10;99.90
23114;DHT22;11726;50.122;8.832;2023-05-07T06:58:44;17.20;99.90
23114;DHT22;11726;50.122;8.832;2023-05-07T07:01:11;17.20;99.90
23114;DHT22;11726;50.122;8.832;2023-05-07T07:03:38;17.20;99.90
23114;DHT22;11726;50.122;8.832;2023-05-07T07:06:05;17.30;99.90
23114;DHT22;11726;50.122;8.832;2023-05-07T07:08:31;17.30;99.90
23114;DHT22;11726;50.122;8.832;2023-05-07T07:10:58;17.40;99.90
23114;DHT22;11726;50.122;8.832;2023-05-07T07:13:25;17.40;99.90
23114;DHT22;11726;50.122;8.832;2023-05-07T07:15:52;17.50;99.90
23114;DHT22;11726;50.122;8.832;2023-05-07T07:18:19;17.50;99.90
23114;DHT22;11726;50.122;8.832;2023-05-07T07:20:46;17.50;99.90
23114;DHT22;11726;50.122;8.832;2023-05-07T07:23:13;17.60;99.90
23114;DHT22;11726;50.122;8.832;2023-05-07T07:25:41;17.60;99.90
23114;DHT22;11726;50.122;8.832;2023-05-07T07:28:07;17.70;99.90
23114;DHT22;11726;50.122;8.832;2023-05-07T07:30:34;17.70;99.90
23114;DHT22;11726;50.122;8.832;2023-05-07T07:33:01;17.80;99.90
23114;DHT22;11726;50.122;8.832;2023-05-07T07:35:30;17.80;99.90
23114;DHT22;11726;50.122;8.832;2023-05-07T07:37:56;18.00;99.90
23114;DHT22;11726;50.122;8.832;2023-05-07T07:40:24;18.20;99.90
23114;DHT22;11726;50.122;8.832;2023-05-07T07:42:52;18.40;99.90
23114;DHT22;11726;50.122;8.832;2023-05-07T07:45:19;18.40;99.90
23114;DHT22;11726;50.122;8.832;2023-05-07T07:47:46;18.50;99.90
23114;DHT22;11726;50.122;8.832;2023-05-07T07:50:12;18.60;99.90
23114;DHT22;11726;50.122;8.832;2023-05-07T07:52:50;18.70;99.90
23114;DHT22;11726;50.122;8.832;2023-05-07T07:55:19;18.90;99.90
23114;DHT22;11726;50.122;8.832;2023-05-07T07:57:49;19.20;99.90
23114;DHT22;11726;50.122;8.832;2023-05-07T08:00:16;19.40;99.90
23114;DHT22;11726;50.122;8.832;2023-05-07T08:02:43;19.30;99.90
23114;DHT22;11726;50.122;8.832;2023-05-07T08:05:10;19.10;99.90
23114;DHT22;11726;50.122;8.832;2023-05-07T08:07:37;19.00;99.90
23114;DHT22;11726;50.122;8.832;2023-05-07T08:10:04;19.20;99.90
23114;DHT22;11726;50.122;8.832;2023-05-07T08:12:31;19.10;99.90
23114;DHT22;11726;50.122;8.832;2023-05-07T08:14:57;19.10;99.90
23114;DHT22;11726;50.122;8.832;2023-05-07T08:17:24;19.10;99.90
23114;DHT22;11726;50.122;8.832;2023-05-07T08:19:51;19.20;99.90
23114;DHT22;11726;50.122;8.832;2023-05-07T08:22:17;19.50;99.90
23114;DHT22;11726;50.122;8.832;2023-05-07T08:24:44;19.60;99.90
23114;DHT22;11726;50.122;8.832;2023-05-07T08:27:11;19.70;99.90
23114;DHT22;11726;50.122;8.832;2023-05-07T08:29:38;19.80;99.90
23114;DHT22;11726;50.122;8.832;2023-05-07T08:32:05;19.70;99.90
23114;DHT22;11726;50.122;8.832;2023-05-07T08:34:31;19.70;99.90
23114;DHT22;11726;50.122;8.832;2023-05-07T08:36:58;19.80;99.90
23114;DHT22;11726;50.122;8.832;2023-05-07T08:39:25;19.90;99.90
23114;DHT22;11726;50.122;8.832;2023-05-07T08:41:55;20.00;99.90
23114;DHT22;11726;50.122;8.832;2023-05-07T08:44:26;19.90;99.90
23114;DHT22;11726;50.122;8.832;2023-05-07T08:46:59;19.90;99.90
23114;DHT22;11726;50.122;8.832;2023-05-07T08:49:28;19.80;99.90
23114;DHT22;11726;50.122;8.832;2023-05-07T08:51:54;19.90;99.90
23114;DHT22;11726;50.122;8.832;2023-05-07T08:54:22;19.90;99.90
23114;DHT22;11726;50.122;8.832;2023-05-07T08:56:49;19.90;99.90
23114;DHT22;11726;50.122;8.832;2023-05-07T08:59:16;20.10;99.90
23114;DHT22;11726;50.122;8.832;2023-05-07T09:01:43;20.20;99.90
23114;DHT22;11726;50.122;8.832;2023-05-07T09:04:10;20.20;99.90
23114;DHT22;11726;50.122;8.832;2023-05-07T09:06:37;20.20;99.90
23114;DHT22;11726;50.122;8.832;2023-05-07T09:09:08;20.20;99.90
23114;DHT22;11726;50.122;8.832;2023-05-07T09:11:34;20.40;99.90
23114;DHT22;11726;50.122;8.832;2023-05-07T09:14:01;20.30;99.90
23114;DHT22;11726;50.122;8.832;2023-05-07T09:16:30;20.40;99.90
23114;DHT22;11726;50.122;8.832;2023-05-07T09:18:59;20.40;99.90
23114;DHT22;11726;50.122;8.832;2023-05-07T09:21:27;20.50;99.90
23114;DHT22;11726;50.122;8.832;2023-05-07T09:23:54;20.70;99.90
23114;DHT22;11726;50.122;8.832;2023-05-07T09:26:22;20.60;99.90
23114;DHT22;11726;50.122;8.832;2023-05-07T09:28:49;20.60;99.90
23114;DHT22;11726;50.122;8.832;2023-05-07T09:31:16;21.00;99.90
23114;DHT22;11726;50.122;8.832;2023-05-07T09:33:46;21.00;99.90
23114;DHT22;11726;50.122;8.832;2023-05-07T09:36:13;21.10;99.90
23114;DHT22;11726;50.122;8.832;2023-05-07T09:38:40;21.20;99.90
23114;DHT22;11726;50.122;8.832;2023-05-07T09:41:10;21.20;99.90
23114;DHT22;11726;50.122;8.832;2023-05-07T09:43:38;21.30;99.90
23114;DHT22;11726;50.122;8.832;2023-05-07T09:46:12;21.30;99.90
23114;DHT22;11726;50.122;8.832;2023-05-07T09:48:43;21.60;99.90
23114;DHT22;11726;50.122;8.832;2023-05-07T09:51:33;21.70;99.90
23114;DHT22;11726;50.122;8.832;2023-05-07T09:54:04;21.90;99.90
23114;DHT22;11726;50.122;8.832;2023-05-07T09:56:31;22.00;99.90
23114;DHT22;11726;50.122;8.832;2023-05-07T09:59:03;22.10;99.90
23114;DHT22;11726;50.122;8.832;2023-05-07T10:01:36;22.20;99.90
23114;DHT22;11726;50.122;8.832;2023-05-07T10:04:03;22.20;99.90
23114;DHT22;11726;50.122;8.832;2023-05-07T10:06:34;22.30;99.90
23114;DHT22;11726;50.122;8.832;2023-05-07T10:09:02;22.40;99.90
23114;DHT22;11726;50.122;8.832;2023-05-07T10:11:29;22.40;99.90
23114;DHT22;11726;50.122;8.832;2023-05-07T10:13:57;22.60;99.90
23114;DHT22;11726;50.122;8.832;2023-05-07T10:16:24;22.90;99.90
23114;DHT22;11726;50.122;8.832;2023-05-07T10:18:53;22.70;99.90
23114;DHT22;11726;50.122;8.832;2023-05-07T10:21:23;22.60;99.90
23114;DHT22;11726;50.122;8.832;2023-05-07T10:24:15;22.80;99.90
23114;DHT22;11726;50.122;8.832;2023-05-07T10:26:44;22.80;99.90
23114;DHT22;11726;50.122;8.832;2023-05-07T10:34:37;22.70;99.90
23114;DHT22;11726;50.122;8.832;2023-05-07T10:37:05;23.10;99.30
23114;DHT22;11726;50.122;8.832;2023-05-07T10:39:32;23.20;98.10
23114;DHT22;11726;50.122;8.832;2023-05-07T10:42:13;23.10;98.70
23114;DHT22;11726;50.122;8.832;2023-05-07T10:44:40;23.20;97.20
23114;DHT22;11726;50.122;8.832;2023-05-07T10:47:09;23.20;97.00
23114;DHT22;11726;50.122;8.832;2023-05-07T10:49:52;23.20;98.00
23114;DHT22;11726;50.122;8.832;2023-05-07T10:52:24;23.30;97.00
23114;DHT22;11726;50.122;8.832;2023-05-07T10:57:45;23.20;96.20
23114;DHT22;11726;50.122;8.832;2023-05-07T11:03:05;23.70;98.20
23114;DHT22;11726;50.122;8.832;2023-05-07T11:05:34;24.00;97.00
23114;DHT22;11726;50.122;8.832;2023-05-07T11:08:05;23.80;96.50
23114;DHT22;11726;50.122;8.832;2023-05-07T11:10:54;24.00;97.20
23114;DHT22;11726;50.122;8.832;2023-05-07T11:13:42;24.10;96.40
23114;DHT22;11726;50.122;8.832;2023-05-07T11:18:52;24.00;94.90
23114;DHT22;11726;50.122;8.832;2023-05-07T11:21:38;23.80;96.00
23114;DHT22;11726;50.122;8.832;2023-05-07T11:24:07;23.70;96.30
23114;DHT22;11726;50.122;8.832;2023-05-07T11:26:46;23.70;95.20
23114;DHT22;11726;50.122;8.832;2023-05-07T11:29:19;23.90;94.60
23114;DHT22;11726;50.122;8.832;2023-05-07T11:31:51;23.80;93.60
23114;DHT22;11726;50.122;8.832;2023-05-07T11:34:26;23.90;95.30
23114;DHT22;11726;50.122;8.832;2023-05-07T11:36:53;24.20;94.70
23114;DHT22;11726;50.122;8.832;2023-05-07T11:39:33;24.30;94.20
23114;DHT22;11726;50.122;8.832;2023-05-07T11:42:00;24.30;93.20
23114;DHT22;11726;50.122;8.832;2023-05-07T11:44:43;24.40;92.60
23114;DHT22;11726;50.122;8.832;2023-05-07T11:47:11;24.60;93.70
23114;DHT22;11726;50.122;8.832;2023-05-07T11:49:38;24.80;92.90
23114;DHT22;11726;50.122;8.832;2023-05-07T11:52:05;25.00;91.80
23114;DHT22;11726;50.122;8.832;2023-05-07T11:54:38;25.00;92.20
23114;DHT22;11726;50.122;8.832;2023-05-07T11:57:05;25.20;91.90
23114;DHT22;11726;50.122;8.832;2023-05-07T11:59:39;25.10;92.20
23114;DHT22;11726;50.122;8.832;2023-05-07T12:02:07;25.10;91.70
23114;DHT22;11726;50.122;8.832;2023-05-07T12:04:34;24.90;91.50
23114;DHT22;11726;50.122;8.832;2023-05-07T12:07:01;25.00;91.90
23114;DHT22;11726;50.122;8.832;2023-05-07T12:09:28;25.20;91.60
23114;DHT22;11726;50.122;8.832;2023-05-07T12:11:55;25.40;90.80
23114;DHT22;11726;50.122;8.832;2023-05-07T12:14:27;25.20;90.00
23114;DHT22;11726;50.122;8.832;2023-05-07T12:16:54;25.10;89.60
23114;DHT22;11726;50.122;8.832;2023-05-07T12:19:22;25.30;90.70
23114;DHT22;11726;50.122;8.832;2023-05-07T12:21:49;25.20;90.00
23114;DHT22;11726;50.122;8.832;2023-05-07T12:24:15;25.40;90.40
23114;DHT22;11726;50.122;8.832;2023-05-07T12:26:48;25.40;90.00
23114;DHT22;11726;50.122;8.832;2023-05-07T12:29:14;25.30;90.00
23114;DHT22;11726;50.122;8.832;2023-05-07T12:31:42;25.00;88.10
23114;DHT22;11726;50.122;8.832;2023-05-07T12:34:11;25.40;87.50
23114;DHT22;11726;50.122;8.832;2023-05-07T12:36:39;25.70;86.50
23114;DHT22;11726;50.122;8.832;2023-05-07T12:39:08;26.10;85.60
23114;DHT22;11726;50.122;8.832;2023-05-07T12:41:54;26.60;86.20
23114;DHT22;11726;50.122;8.832;2023-05-07T12:44:29;26.90;81.70
23114;DHT22;11726;50.122;8.832;2023-05-07T12:46:56;27.10;80.90
23114;DHT22;11726;50.122;8.832;2023-05-07T12:49:24;26.80;81.70
23114;DHT22;11726;50.122;8.832;2023-05-07T12:51:51;26.80;82.20
23114;DHT22;11726;50.122;8.832;2023-05-07T12:54:31;26.90;79.60
23114;DHT22;11726;50.122;8.832;2023-05-07T12:57:05;26.80;78.50
23114;DHT22;11726;50.122;8.832;2023-05-07T12:59:37;26.50;79.90
23114;DHT22;11726;50.122;8.832;2023-05-07T13:02:04;26.70;79.90
23114;DHT22;11726;50.122;8.832;2023-05-07T13:04:31;26.50;79.10
23114;DHT22;11726;50.122;8.832;2023-05-07T13:06:59;26.50;77.50
23114;DHT22;11726;50.122;8.832;2023-05-07T13:09:26;26.60;80.00
23114;DHT22;11726;50.122;8.832;2023-05-07T13:11:55;26.80;76.70
23114;DHT22;11726;50.122;8.832;2023-05-07T13:14:23;27.00;75.80
23114;DHT22;11726;50.122;8.832;2023-05-07T13:16:50;27.00;78.10
23114;DHT22;11726;50.122;8.832;2023-05-07T13:19:17;27.00;78.50
23114;DHT22;11726;50.122;8.832;2023-05-07T13:21:44;27.00;77.30
23114;DHT22;11726;50.122;8.832;2023-05-07T13:24:11;27.10;76.50
23114;DHT22;11726;50.122;8.832;2023-05-07T13:26:38;26.90;76.20
23114;DHT22;11726;50.122;8.832;2023-05-07T13:29:04;27.00;78.50
23114;DHT22;11726;50.122;8.832;2023-05-07T13:31:31;26.90;77.10
23114;DHT22;11726;50.122;8.832;2023-05-07T13:33:58;26.60;77.10
23114;DHT22;11726;50.122;8.832;2023-05-07T13:36:25;26.20;79.00
23114;DHT22;11726;50.122;8.832;2023-05-07T13:38:53;26.10;79.60
23114;DHT22;11726;50.122;8.832;2023-05-07T13:41:19;25.80;80.70
23114;DHT22;11726;50.122;8.832;2023-05-07T13:43:46;25.70;81.20
23114;DHT22;11726;50.122;8.832;2023-05-07T13:46:13;25.30;81.80
23114;DHT22;11726;50.122;8.832;2023-05-07T13:48:40;25.20;82.60
23114;DHT22;11726;50.122;8.832;2023-05-07T13:51:07;25.00;83.40
23114;DHT22;11726;50.122;8.832;2023-05-07T13:53:33;24.90;82.90
23114;DHT22;11726;50.122;8.832;2023-05-07T13:56:00;24.90;83.80
23114;DHT22;11726;50.122;8.832;2023-05-07T13:58:27;24.80;83.00
23114;DHT22;11726;50.122;8.832;2023-05-07T14:00:54;24.70;82.90
23114;DHT22;11726;50.122;8.832;2023-05-07T14:03:21;24.70;84.40
23114;DHT22;11726;50.122;8.832;2023-05-07T14:05:48;24.60;84.20
23114;DHT22;11726;50.122;8.832;2023-05-07T14:08:16;24.60;84.90
23114;DHT22;11726;50.122;8.832;2023-05-07T14:10:46;24.80;86.00
23114;DHT22;11726;50.122;8.832;2023-05-07T14:13:13;24.80;86.30
23114;DHT22;11726;50.122;8.832;2023-05-07T14:15:39;24.70;83.80
23114;DHT22;11726;50.122;8.832;2023-05-07T14:18:06;24.50;83.10
23114;DHT22;11726;50.122;8.832;2023-05-07T14:20:33;24.50;84.90
23114;DHT22;11726;50.122;8.832;2023-05-07T14:23:03;24.50;84.70
23114;DHT22;11726;50.122;8.832;2023-05-07T14:25:30;24.50;83.00
23114;DHT22;11726;50.122;8.832;2023-05-07T14:27:56;24.40;84.80
23114;DHT22;11726;50.122;8.832;2023-05-07T14:30:23;24.40;84.30
23114;DHT22;11726;50.122;8.832;2023-05-07T14:32:50;24.30;83.80
23114;DHT22;11726;50.122;8.832;2023-05-07T14:35:17;24.40;84.00
23114;DHT22;11726;50.122;8.832;2023-05-07T14:37:44;24.40;84.70
23114;DHT22;11726;50.122;8.832;2023-05-07T14:40:11;24.30;83.40
23114;DHT22;11726;50.122;8.832;2023-05-07T14:42:38;24.30;85.00
23114;DHT22;11726;50.122;8.832;2023-05-07T14:45:05;24.40;84.80
23114;DHT22;11726;50.122;8.832;2023-05-07T14:47:32;24.50;85.10
23114;DHT22;11726;50.122;8.832;2023-05-07T14:49:59;24.60;84.00
23114;DHT22;11726;50.122;8.832;2023-05-07T14:52:27;24.80;82.70
23114;DHT22;11726;50.122;8.832;2023-05-07T14:54:54;24.80;83.40
23114;DHT22;11726;50.122;8.832;2023-05-07T14:57:20;24.80;83.10
23114;DHT22;11726;50.122;8.832;2023-05-07T14:59:47;24.80;83.00
23114;DHT22;11726;50.122;8.832;2023-05-07T15:02:14;24.50;83.20
23114;DHT22;11726;50.122;8.832;2023-05-07T15:04:42;24.40;82.90
23114;DHT22;11726;50.122;8.832;2023-05-07T15:07:14;24.40;83.90
23114;DHT22;11726;50.122;8.832;2023-05-07T15:09:42;24.40;83.70
23114;DHT22;11726;50.122;8.832;2023-05-07T15:12:09;24.40;84.50
23114;DHT22;11726;50.122;8.832;2023-05-07T15:14:36;24.30;85.10
23114;DHT22;11726;50.122;8.832;2023-05-07T15:17:03;24.10;86.20
23114;DHT22;11726;50.122;8.832;2023-05-07T15:19:30;24.00;84.70
23114;DHT22;11726;50.122;8.832;2023-05-07T15:21:58;23.80;85.50
23114;DHT22;11726;50.122;8.832;2023-05-07T15:24:26;23.70;86.30
23114;DHT22;11726;50.122;8.832;2023-05-07T15:26:53;23.70;86.20
23114;DHT22;11726;50.122;8.832;2023-05-07T15:29:20;23.60;86.50
23114;DHT22;11726;50.122;8.832;2023-05-07T15:31:48;23.50;87.30
23114;DHT22;11726;50.122;8.832;2023-05-07T15:34:15;23.40;87.00
23114;DHT22;11726;50.122;8.832;2023-05-07T15:36:42;23.40;87.90
23114;DHT22;11726;50.122;8.832;2023-05-07T15:39:08;23.40;88.60
23114;DHT22;11726;50.122;8.832;2023-05-07T15:41:36;23.30;87.70
23114;DHT22;11726;50.122;8.832;2023-05-07T15:44:06;23.30;88.90
23114;DHT22;11726;50.122;8.832;2023-05-07T15:46:32;23.20;90.00
23114;DHT22;11726;50.122;8.832;2023-05-07T15:49:01;23.10;90.10
23114;DHT22;11726;50.122;8.832;2023-05-07T15:51:30;23.00;90.20
23114;DHT22;11726;50.122;8.832;2023-05-07T15:53:57;23.00;90.50